sensor_id;sensor_type;location;lat;lon;timestamp;temperature;humidity
69464;DHT22;56665;41.106;16.688;2023-01-28T00:02:37;7.23;85.42
69464;DHT22;56665;41.106;16.688;2023-01-28T00:05:41;7.23;84.74
69464;DHT22;56665;41.106;16.688;2023-01-28T00:08:45;7.19;84.40
69464;DHT22;56665;41.106;16.688;2023-01-28T00:11:49;7.17;84.77
69464;DHT22;56665;41.106;16.688;2023-01-28T00:14:54;7.20;84.29
69464;DHT22;56665;41.106;16.688;2023-01-28T00:17:59;7.15;84.82
69464;DHT22;56665;41.106;16.688;2023-01-28T00:21:10;7.10;84.80
69464;DHT22;56665;41.106;16.688;2023-01-28T00:24:15;7.13;85.14
69464;DHT22;56665;41.106;16.688;2023-01-28T00:27:18;7.09;85.14
69464;DHT22;56665;41.106;16.688;2023-01-28T00:30:22;7.09;85.03
69464;DHT22;56665;41.106;16.688;2023-01-28T00:33:27;7.06;84.83
69464;DHT22;56665;41.106;16.688;2023-01-28T00:36:31;7.07;85.22
69464;DHT22;56665;41.106;16.688;2023-01-28T00:39:36;7.10;85.31
69464;DHT22;56665;41.106;16.688;2023-01-28T00:42:41;7.09;85.06
69464;DHT22;56665;41.106;16.688;2023-01-28T00:45:46;7.06;84.94
69464;DHT22;56665;41.106;16.688;2023-01-28T00:48:49;7.05;85.12
69464;DHT22;56665;41.106;16.688;2023-01-28T00:51:53;7.10;84.63
69464;DHT22;56665;41.106;16.688;2023-01-28T00:54:57;7.06;84.53
69464;DHT22;56665;41.106;16.688;2023-01-28T00:58:00;7.06;84.24
69464;DHT22;56665;41.106;16.688;2023-01-28T01:01:09;7.02;84.54
69464;DHT22;56665;41.106;16.688;2023-01-28T01:04:14;7.07;84.91
69464;DHT22;56665;41.106;16.688;2023-01-28T01:07:30;7.06;84.61
69464;DHT22;56665;41.106;16.688;2023-01-28T01:10:46;7.12;84.77
69464;DHT22;56665;41.106;16.688;2023-01-28T01:13:54;7.09;84.29
69464;DHT22;56665;41.106;16.688;2023-01-28T01:17:01;7.09;84.08
69464;DHT22;56665;41.106;16.688;2023-01-28T01:20:10;7.07;84.02
69464;DHT22;56665;41.106;16.688;2023-01-28T01:23:14;7.05;83.74
69464;DHT22;56665;41.106;16.688;2023-01-28T01:26:18;7.05;83.80
69464;DHT22;56665;41.106;16.688;2023-01-28T01:29:23;6.99;84.44
69464;DHT22;56665;41.106;16.688;2023-01-28T01:32:31;6.97;84.45
69464;DHT22;56665;41.106;16.688;2023-01-28T01:35:36;6.97;84.48
69464;DHT22;56665;41.106;16.688;2023-01-28T01:38:39;6.95;84.25
69464;DHT22;56665;41.106;16.688;2023-01-28T01:41:45;6.96;84.01
69464;DHT22;56665;41.106;16.688;2023-01-28T01:48:04;6.97;84.98
69464;DHT22;56665;41.106;16.688;2023-01-28T01:51:16;6.99;84.32
69464;DHT22;56665;41.106;16.688;2023-01-28T01:54:20;6.97;83.87
69464;DHT22;56665;41.106;16.688;2023-01-28T01:57:30;7.00;83.74
69464;DHT22;56665;41.106;16.688;2023-01-28T02:00:36;6.99;83.66
69464;DHT22;56665;41.106;16.688;2023-01-28T02:03:50;6.97;83.62
69464;DHT22;56665;41.106;16.688;2023-01-28T02:06:59;6.95;83.86
69464;DHT22;56665;41.106;16.688;2023-01-28T02:10:04;6.93;84.22
69464;DHT22;56665;41.106;16.688;2023-01-28T02:13:10;6.95;84.42
69464;DHT22;56665;41.106;16.688;2023-01-28T02:16:15;6.92;83.99
69464;DHT22;56665;41.106;16.688;2023-01-28T02:19:21;6.95;84.44
69464;DHT22;56665;41.106;16.688;2023-01-28T02:26:15;6.91;84.49
69464;DHT22;56665;41.106;16.688;2023-01-28T02:29:55;6.88;83.90
69464;DHT22;56665;41.106;16.688;2023-01-28T02:33:21;6.85;84.03
69464;DHT22;56665;41.106;16.688;2023-01-28T02:36:42;6.78;84.64
69464;DHT22;56665;41.106;16.688;2023-01-28T02:40:13;6.74;84.59
69464;DHT22;56665;41.106;16.688;2023-01-28T02:43:41;6.74;85.25
69464;DHT22;56665;41.106;16.688;2023-01-28T02:46:46;6.75;85.07
69464;DHT22;56665;41.106;16.688;2023-01-28T02:50:14;6.72;85.11
69464;DHT22;56665;41.106;16.688;2023-01-28T02:53:30;6.64;84.57
69464;DHT22;56665;41.106;16.688;2023-01-28T02:56:48;6.61;84.75
69464;DHT22;56665;41.106;16.688;2023-01-28T03:03:57;6.49;84.88
69464;DHT22;56665;41.106;16.688;2023-01-28T03:07:05;6.45;85.06
69464;DHT22;56665;41.106;16.688;2023-01-28T03:10:13;6.38;85.45
69464;DHT22;56665;41.106;16.688;2023-01-28T03:13:20;6.34;85.24
69464;DHT22;56665;41.106;16.688;2023-01-28T03:16:42;6.24;85.25
69464;DHT22;56665;41.106;16.688;2023-01-28T03:20:04;6.20;85.23
69464;DHT22;56665;41.106;16.688;2023-01-28T03:23:32;6.16;85.40
69464;DHT22;56665;41.106;16.688;2023-01-28T03:31:05;6.11;85.19
69464;DHT22;56665;41.106;16.688;2023-01-28T03:34:32;6.11;85.79
69464;DHT22;56665;41.106;16.688;2023-01-28T03:37:57;6.06;85.68
69464;DHT22;56665;41.106;16.688;2023-01-28T03:41:03;6.03;85.79
69464;DHT22;56665;41.106;16.688;2023-01-28T03:44:09;6.00;85.41
69464;DHT22;56665;41.106;16.688;2023-01-28T03:47:33;6.03;85.32
69464;DHT22;56665;41.106;16.688;2023-01-28T03:50:40;5.96;85.60
69464;DHT22;56665;41.106;16.688;2023-01-28T03:53:44;5.95;85.56
69464;DHT22;56665;41.106;16.688;2023-01-28T03:56:48;5.95;85.83
69464;DHT22;56665;41.106;16.688;2023-01-28T03:59:52;5.90;85.77
69464;DHT22;56665;41.106;16.688;2023-01-28T04:02:58;5.85;85.34
69464;DHT22;56665;41.106;16.688;2023-01-28T04:06:04;5.83;86.07
69464;DHT22;56665;41.106;16.688;2023-01-28T04:09:37;5.81;85.77
69464;DHT22;56665;41.106;16.688;2023-01-28T04:12:59;5.79;85.83
69464;DHT22;56665;41.106;16.688;2023-01-28T04:16:03;5.81;86.06
69464;DHT22;56665;41.106;16.688;2023-01-28T04:19:12;5.73;85.67
69464;DHT22;56665;41.106;16.688;2023-01-28T04:22:16;5.71;85.82
69464;DHT22;56665;41.106;16.688;2023-01-28T04:25:20;5.76;85.98
69464;DHT22;56665;41.106;16.688;2023-01-28T04:28:25;5.75;85.88
69464;DHT22;56665;41.106;16.688;2023-01-28T04:31:29;5.73;85.22
69464;DHT22;56665;41.106;16.688;2023-01-28T04:34:51;5.68;85.98
69464;DHT22;56665;41.106;16.688;2023-01-28T04:38:32;5.66;85.47
69464;DHT22;56665;41.106;16.688;2023-01-28T04:41:57;5.65;85.82
69464;DHT22;56665;41.106;16.688;2023-01-28T04:45:14;5.65;85.79
69464;DHT22;56665;41.106;16.688;2023-01-28T04:48:34;5.62;85.89
69464;DHT22;56665;41.106;16.688;2023-01-28T04:51:59;5.64;85.87
69464;DHT22;56665;41.106;16.688;2023-01-28T04:55:20;5.59;85.45
69464;DHT22;56665;41.106;16.688;2023-01-28T04:58:24;5.59;85.67
69464;DHT22;56665;41.106;16.688;2023-01-28T05:01:30;5.56;85.94
69464;DHT22;56665;41.106;16.688;2023-01-28T05:04:35;5.56;86.19
69464;DHT22;56665;41.106;16.688;2023-01-28T05:07:39;5.55;85.78
69464;DHT22;56665;41.106;16.688;2023-01-28T05:10:44;5.54;85.76
69464;DHT22;56665;41.106;16.688;2023-01-28T05:13:48;5.61;86.76
69464;DHT22;56665;41.106;16.688;2023-01-28T05:16:52;5.68;86.89
69464;DHT22;56665;41.106;16.688;2023-01-28T05:19:57;5.72;86.59
69464;DHT22;56665;41.106;16.688;2023-01-28T05:23:05;5.76;86.20
69464;DHT22;56665;41.106;16.688;2023-01-28T05:26:20;5.87;86.35
69464;DHT22;56665;41.106;16.688;2023-01-28T05:29:24;5.92;86.22
69464;DHT22;56665;41.106;16.688;2023-01-28T05:32:28;5.95;85.45
69464;DHT22;56665;41.106;16.688;2023-01-28T05:35:33;5.93;84.67
69464;DHT22;56665;41.106;16.688;2023-01-28T05:38:39;5.92;84.39
69464;DHT22;56665;41.106;16.688;2023-01-28T05:41:44;5.86;84.03
69464;DHT22;56665;41.106;16.688;2023-01-28T05:44:49;5.85;84.70
69464;DHT22;56665;41.106;16.688;2023-01-28T05:48:16;5.81;84.73
69464;DHT22;56665;41.106;16.688;2023-01-28T05:51:47;5.81;85.19
69464;DHT22;56665;41.106;16.688;2023-01-28T05:54:55;5.85;85.97
69464;DHT22;56665;41.106;16.688;2023-01-28T05:58:00;5.86;85.92
69464;DHT22;56665;41.106;16.688;2023-01-28T06:01:03;5.85;85.09
69464;DHT22;56665;41.106;16.688;2023-01-28T06:04:22;5.86;84.93
69464;DHT22;56665;41.106;16.688;2023-01-28T06:07:27;5.83;85.05
69464;DHT22;56665;41.106;16.688;2023-01-28T06:10:31;5.81;84.51
69464;DHT22;56665;41.106;16.688;2023-01-28T06:13:35;5.78;84.61
69464;DHT22;56665;41.106;16.688;2023-01-28T06:17:03;5.72;84.40
69464;DHT22;56665;41.106;16.688;2023-01-28T06:20:28;5.68;85.05
69464;DHT22;56665;41.106;16.688;2023-01-28T06:23:35;5.72;85.20
69464;DHT22;56665;41.106;16.688;2023-01-28T06:26:40;5.75;85.27
69464;DHT22;56665;41.106;16.688;2023-01-28T06:29:45;5.78;84.57
69464;DHT22;56665;41.106;16.688;2023-01-28T06:32:53;5.75;84.37
69464;DHT22;56665;41.106;16.688;2023-01-28T06:35:57;5.75;84.64
69464;DHT22;56665;41.106;16.688;2023-01-28T06:39:03;5.79;84.89
69464;DHT22;56665;41.106;16.688;2023-01-28T06:42:06;5.81;84.42
69464;DHT22;56665;41.106;16.688;2023-01-28T06:45:11;5.86;84.15
69464;DHT22;56665;41.106;16.688;2023-01-28T06:48:15;5.96;83.84
69464;DHT22;56665;41.106;16.688;2023-01-28T06:51:19;6.02;83.77
69464;DHT22;56665;41.106;16.688;2023-01-28T06:54:24;6.10;83.67
69464;DHT22;56665;41.106;16.688;2023-01-28T06:57:28;6.20;83.44
69464;DHT22;56665;41.106;16.688;2023-01-28T07:00:32;6.31;82.87
69464;DHT22;56665;41.106;16.688;2023-01-28T07:03:36;6.44;82.56
69464;DHT22;56665;41.106;16.688;2023-01-28T07:06:41;6.59;82.09
69464;DHT22;56665;41.106;16.688;2023-01-28T07:09:44;6.75;82.19
69464;DHT22;56665;41.106;16.688;2023-01-28T07:12:48;6.99;81.08
69464;DHT22;56665;41.106;16.688;2023-01-28T07:15:52;7.24;80.36
69464;DHT22;56665;41.106;16.688;2023-01-28T07:18:56;7.46;79.36
69464;DHT22;56665;41.106;16.688;2023-01-28T07:22:04;7.71;78.74
69464;DHT22;56665;41.106;16.688;2023-01-28T07:25:10;7.98;77.47
69464;DHT22;56665;41.106;16.688;2023-01-28T07:28:13;8.23;77.39
69464;DHT22;56665;41.106;16.688;2023-01-28T07:31:23;8.46;76.49
69464;DHT22;56665;41.106;16.688;2023-01-28T07:34:28;8.67;75.32
69464;DHT22;56665;41.106;16.688;2023-01-28T07:37:33;8.85;74.60
69464;DHT22;56665;41.106;16.688;2023-01-28T07:40:39;8.81;74.99
69464;DHT22;56665;41.106;16.688;2023-01-28T07:43:46;9.16;74.30
69464;DHT22;56665;41.106;16.688;2023-01-28T07:46:50;9.66;73.06
69464;DHT22;56665;41.106;16.688;2023-01-28T07:49:56;9.91;72.29
69464;DHT22;56665;41.106;16.688;2023-01-28T07:53:08;10.26;71.12
69464;DHT22;56665;41.106;16.688;2023-01-28T07:56:12;10.33;71.48
69464;DHT22;56665;41.106;16.688;2023-01-28T07:59:16;10.24;71.21
69464;DHT22;56665;41.106;16.688;2023-01-28T08:02:21;9.93;72.22
69464;DHT22;56665;41.106;16.688;2023-01-28T08:05:27;9.57;73.65
69464;DHT22;56665;41.106;16.688;2023-01-28T08:08:33;9.40;74.20
69464;DHT22;56665;41.106;16.688;2023-01-28T08:11:41;9.44;74.56
69464;DHT22;56665;41.106;16.688;2023-01-28T08:14:46;9.80;73.95
69464;DHT22;56665;41.106;16.688;2023-01-28T08:17:53;9.99;72.85
69464;DHT22;56665;41.106;16.688;2023-01-28T08:21:00;10.02;72.91
69464;DHT22;56665;41.106;16.688;2023-01-28T08:24:05;10.33;71.93
69464;DHT22;56665;41.106;16.688;2023-01-28T08:27:09;10.24;72.09
69464;DHT22;56665;41.106;16.688;2023-01-28T08:30:13;10.02;73.04
69464;DHT22;56665;41.106;16.688;2023-01-28T08:33:18;9.74;73.60
69464;DHT22;56665;41.106;16.688;2023-01-28T08:36:22;9.44;74.40
69464;DHT22;56665;41.106;16.688;2023-01-28T08:39:26;9.25;76.20
69464;DHT22;56665;41.106;16.688;2023-01-28T08:42:29;9.16;76.64
69464;DHT22;56665;41.106;16.688;2023-01-28T08:45:34;9.06;76.35
69464;DHT22;56665;41.106;16.688;2023-01-28T08:48:39;9.14;76.28
69464;DHT22;56665;41.106;16.688;2023-01-28T08:51:43;9.32;77.33
69464;DHT22;56665;41.106;16.688;2023-01-28T08:54:47;9.35;76.26
69464;DHT22;56665;41.106;16.688;2023-01-28T08:57:51;9.46;75.87
69464;DHT22;56665;41.106;16.688;2023-01-28T09:00:55;9.50;75.96
69464;DHT22;56665;41.106;16.688;2023-01-28T09:03:59;9.53;75.54
69464;DHT22;56665;41.106;16.688;2023-01-28T09:07:02;9.54;75.28
69464;DHT22;56665;41.106;16.688;2023-01-28T09:10:08;9.54;73.95
69464;DHT22;56665;41.106;16.688;2023-01-28T09:13:14;9.53;74.27
69464;DHT22;56665;41.106;16.688;2023-01-28T09:16:21;9.54;75.08
69464;DHT22;56665;41.106;16.688;2023-01-28T09:19:25;9.56;75.95
69464;DHT22;56665;41.106;16.688;2023-01-28T09:22:29;9.54;74.93
69464;DHT22;56665;41.106;16.688;2023-01-28T09:25:35;9.53;74.84
69464;DHT22;56665;41.106;16.688;2023-01-28T09:28:38;9.57;73.37
69464;DHT22;56665;41.106;16.688;2023-01-28T09:31:42;9.94;73.45
69464;DHT22;56665;41.106;16.688;2023-01-28T09:34:47;10.35;71.23
69464;DHT22;56665;41.106;16.688;2023-01-28T09:37:51;10.63;71.99
69464;DHT22;56665;41.106;16.688;2023-01-28T09:40:59;10.84;72.06
69464;DHT22;56665;41.106;16.688;2023-01-28T09:44:12;10.91;72.33
69464;DHT22;56665;41.106;16.688;2023-01-28T09:47:29;10.87;72.42
69464;DHT22;56665;41.106;16.688;2023-01-28T09:50:39;10.91;73.39
69464;DHT22;56665;41.106;16.688;2023-01-28T09:53:46;10.91;72.94
69464;DHT22;56665;41.106;16.688;2023-01-28T09:56:59;10.83;73.74
69464;DHT22;56665;41.106;16.688;2023-01-28T10:00:20;10.83;73.57
69464;DHT22;56665;41.106;16.688;2023-01-28T10:16:36;11.34;72.92
69464;DHT22;56665;41.106;16.688;2023-01-28T10:20:07;11.47;71.72
69464;DHT22;56665;41.106;16.688;2023-01-28T10:27:02;11.58;70.87
69464;DHT22;56665;41.106;16.688;2023-01-28T10:30:21;11.70;71.00
69464;DHT22;56665;41.106;16.688;2023-01-28T10:33:30;11.90;71.67
69464;DHT22;56665;41.106;16.688;2023-01-28T10:36:36;11.96;71.14
69464;DHT22;56665;41.106;16.688;2023-01-28T10:39:40;11.96;70.65
69464;DHT22;56665;41.106;16.688;2023-01-28T10:42:44;12.07;72.01
69464;DHT22;56665;41.106;16.688;2023-01-28T10:45:56;12.21;72.19
69464;DHT22;56665;41.106;16.688;2023-01-28T10:49:17;12.30;72.28
69464;DHT22;56665;41.106;16.688;2023-01-28T10:52:22;12.34;72.35
69464;DHT22;56665;41.106;16.688;2023-01-28T10:55:33;12.41;72.86
69464;DHT22;56665;41.106;16.688;2023-01-28T10:58:57;12.52;71.33
69464;DHT22;56665;41.106;16.688;2023-01-28T11:02:04;12.59;70.91
69464;DHT22;56665;41.106;16.688;2023-01-28T11:05:24;12.55;70.56
69464;DHT22;56665;41.106;16.688;2023-01-28T11:08:29;12.51;69.30
69464;DHT22;56665;41.106;16.688;2023-01-28T11:11:33;12.59;70.22
69464;DHT22;56665;41.106;16.688;2023-01-28T11:14:37;12.80;70.05
69464;DHT22;56665;41.106;16.688;2023-01-28T11:17:55;13.03;68.14
69464;DHT22;56665;41.106;16.688;2023-01-28T11:21:02;12.99;69.09
69464;DHT22;56665;41.106;16.688;2023-01-28T11:24:15;12.95;69.43
69464;DHT22;56665;41.106;16.688;2023-01-28T11:27:27;12.91;70.53
69464;DHT22;56665;41.106;16.688;2023-01-28T11:30:35;12.93;69.79
69464;DHT22;56665;41.106;16.688;2023-01-28T11:33:52;13.26;67.12
69464;DHT22;56665;41.106;16.688;2023-01-28T11:37:11;13.73;65.04
69464;DHT22;56665;41.106;16.688;2023-01-28T11:40:17;14.01;65.10
69464;DHT22;56665;41.106;16.688;2023-01-28T11:43:29;14.26;64.08
69464;DHT22;56665;41.106;16.688;2023-01-28T11:46:43;14.30;62.51
69464;DHT22;56665;41.106;16.688;2023-01-28T11:53:48;14.16;62.80
69464;DHT22;56665;41.106;16.688;2023-01-28T12:10:20;13.24;65.43
69464;DHT22;56665;41.106;16.688;2023-01-28T12:23:46;12.14;67.86
69464;DHT22;56665;41.106;16.688;2023-01-28T12:44:04;12.36;67.99
69464;DHT22;56665;41.106;16.688;2023-01-28T12:47:35;12.21;69.05
69464;DHT22;56665;41.106;16.688;2023-01-28T12:50:46;12.21;69.57
69464;DHT22;56665;41.106;16.688;2023-01-28T12:53:57;12.01;68.64
69464;DHT22;56665;41.106;16.688;2023-01-28T12:57:04;11.91;71.22
69464;DHT22;56665;41.106;16.688;2023-01-28T13:00:47;11.96;71.62
69464;DHT22;56665;41.106;16.688;2023-01-28T13:04:08;12.12;70.48
69464;DHT22;56665;41.106;16.688;2023-01-28T13:07:19;12.23;68.76
69464;DHT22;56665;41.106;16.688;2023-01-28T13:10:36;12.36;69.98
69464;DHT22;56665;41.106;16.688;2023-01-28T13:13:41;12.55;70.34
69464;DHT22;56665;41.106;16.688;2023-01-28T13:16:46;12.49;68.07
69464;DHT22;56665;41.106;16.688;2023-01-28T13:19:50;12.44;70.29
69464;DHT22;56665;41.106;16.688;2023-01-28T13:23:02;11.97;69.50
69464;DHT22;56665;41.106;16.688;2023-01-28T13:29:47;11.75;70.54
69464;DHT22;56665;41.106;16.688;2023-01-28T13:33:01;11.77;71.78
69464;DHT22;56665;41.106;16.688;2023-01-28T13:39:20;11.80;72.91
69464;DHT22;56665;41.106;16.688;2023-01-28T13:42:26;11.80;72.76
69464;DHT22;56665;41.106;16.688;2023-01-28T13:45:31;11.83;72.61
69464;DHT22;56665;41.106;16.688;2023-01-28T13:48:50;11.69;71.56
69464;DHT22;56665;41.106;16.688;2023-01-28T13:55:20;11.58;72.12
69464;DHT22;56665;41.106;16.688;2023-01-28T14:12:57;11.52;74.77
69464;DHT22;56665;41.106;16.688;2023-01-28T14:19:11;11.48;74.83
69464;DHT22;56665;41.106;16.688;2023-01-28T14:22:18;11.48;74.96
69464;DHT22;56665;41.106;16.688;2023-01-28T14:25:48;11.48;74.60
69464;DHT22;56665;41.106;16.688;2023-01-28T14:32:35;11.38;74.76
69464;DHT22;56665;41.106;16.688;2023-01-28T14:35:45;11.37;76.04
69464;DHT22;56665;41.106;16.688;2023-01-28T14:38:51;11.32;75.90
69464;DHT22;56665;41.106;16.688;2023-01-28T14:42:00;11.19;74.86
69464;DHT22;56665;41.106;16.688;2023-01-28T14:58:31;10.83;74.98
69464;DHT22;56665;41.106;16.688;2023-01-28T15:01:42;10.79;75.84
69464;DHT22;56665;41.106;16.688;2023-01-28T15:04:49;10.80;75.98
69464;DHT22;56665;41.106;16.688;2023-01-28T15:07:54;10.79;75.70
69464;DHT22;56665;41.106;16.688;2023-01-28T15:10:59;10.77;75.17
69464;DHT22;56665;41.106;16.688;2023-01-28T15:14:07;10.73;75.18
69464;DHT22;56665;41.106;16.688;2023-01-28T15:17:25;10.65;75.64
69464;DHT22;56665;41.106;16.688;2023-01-28T15:20:29;10.53;75.72
69464;DHT22;56665;41.106;16.688;2023-01-28T15:23:40;10.52;75.93
69464;DHT22;56665;41.106;16.688;2023-01-28T15:26:46;10.50;76.71
69464;DHT22;56665;41.106;16.688;2023-01-28T15:29:52;10.50;77.52
69464;DHT22;56665;41.106;16.688;2023-01-28T15:36:01;10.40;77.27
69464;DHT22;56665;41.106;16.688;2023-01-28T15:39:22;10.42;78.00
69464;DHT22;56665;41.106;16.688;2023-01-28T15:42:27;10.32;77.73
69464;DHT22;56665;41.106;16.688;2023-01-28T15:45:34;10.25;77.91
69464;DHT22;56665;41.106;16.688;2023-01-28T15:48:45;10.19;76.64
69464;DHT22;56665;41.106;16.688;2023-01-28T15:51:50;10.22;76.98
69464;DHT22;56665;41.106;16.688;2023-01-28T15:54:53;10.17;77.47
69464;DHT22;56665;41.106;16.688;2023-01-28T16:01:21;10.21;77.02
69464;DHT22;56665;41.106;16.688;2023-01-28T16:04:27;10.21;75.40
69464;DHT22;56665;41.106;16.688;2023-01-28T16:07:32;10.18;75.28
69464;DHT22;56665;41.106;16.688;2023-01-28T16:10:38;10.18;76.44
69464;DHT22;56665;41.106;16.688;2023-01-28T16:13:43;10.08;75.65
69464;DHT22;56665;41.106;16.688;2023-01-28T16:16:47;10.01;75.85
69464;DHT22;56665;41.106;16.688;2023-01-28T16:20:05;9.94;75.74
69464;DHT22;56665;41.106;16.688;2023-01-28T16:23:20;9.86;75.31
69464;DHT22;56665;41.106;16.688;2023-01-28T16:26:30;9.74;75.11
69464;DHT22;56665;41.106;16.688;2023-01-28T16:29:34;9.64;75.19
69464;DHT22;56665;41.106;16.688;2023-01-28T16:32:39;9.53;75.29
69464;DHT22;56665;41.106;16.688;2023-01-28T16:35:45;9.47;75.81
69464;DHT22;56665;41.106;16.688;2023-01-28T16:38:49;9.43;76.38
69464;DHT22;56665;41.106;16.688;2023-01-28T16:41:53;9.39;76.95
69464;DHT22;56665;41.106;16.688;2023-01-28T16:45:00;9.32;77.12
69464;DHT22;56665;41.106;16.688;2023-01-28T16:48:04;9.26;77.65
69464;DHT22;56665;41.106;16.688;2023-01-28T16:51:14;9.28;77.73
69464;DHT22;56665;41.106;16.688;2023-01-28T16:54:18;9.29;77.65
69464;DHT22;56665;41.106;16.688;2023-01-28T16:57:22;9.29;77.93
69464;DHT22;56665;41.106;16.688;2023-01-28T17:00:26;9.32;77.80
69464;DHT22;56665;41.106;16.688;2023-01-28T17:03:30;9.35;77.84
69464;DHT22;56665;41.106;16.688;2023-01-28T17:06:35;9.37;77.38
69464;DHT22;56665;41.106;16.688;2023-01-28T17:09:44;9.36;76.60
69464;DHT22;56665;41.106;16.688;2023-01-28T17:12:47;9.30;76.42
69464;DHT22;56665;41.106;16.688;2023-01-28T17:15:51;9.29;76.33
69464;DHT22;56665;41.106;16.688;2023-01-28T17:18:55;9.22;76.89
69464;DHT22;56665;41.106;16.688;2023-01-28T17:21:59;9.14;77.24
69464;DHT22;56665;41.106;16.688;2023-01-28T17:25:02;9.06;77.31
69464;DHT22;56665;41.106;16.688;2023-01-28T17:28:07;9.09;78.01
69464;DHT22;56665;41.106;16.688;2023-01-28T17:31:12;8.99;77.41
69464;DHT22;56665;41.106;16.688;2023-01-28T17:34:16;8.92;77.86
69464;DHT22;56665;41.106;16.688;2023-01-28T17:37:20;8.85;78.04
69464;DHT22;56665;41.106;16.688;2023-01-28T17:40:25;8.79;78.54
69464;DHT22;56665;41.106;16.688;2023-01-28T17:43:28;8.78;78.88
69464;DHT22;56665;41.106;16.688;2023-01-28T17:46:32;8.75;78.84
69464;DHT22;56665;41.106;16.688;2023-01-28T17:49:36;8.68;78.69
69464;DHT22;56665;41.106;16.688;2023-01-28T17:52:39;8.64;78.89
69464;DHT22;56665;41.106;16.688;2023-01-28T17:55:43;8.67;79.42
69464;DHT22;56665;41.106;16.688;2023-01-28T17:58:58;8.64;79.25
69464;DHT22;56665;41.106;16.688;2023-01-28T18:02:05;8.61;78.61
69464;DHT22;56665;41.106;16.688;2023-01-28T18:05:11;8.57;78.20
69464;DHT22;56665;41.106;16.688;2023-01-28T18:08:18;8.56;78.23
69464;DHT22;56665;41.106;16.688;2023-01-28T18:11:22;8.56;77.93
69464;DHT22;56665;41.106;16.688;2023-01-28T18:14:27;8.57;77.10
69464;DHT22;56665;41.106;16.688;2023-01-28T18:17:31;8.57;76.79
69464;DHT22;56665;41.106;16.688;2023-01-28T18:20:35;8.51;76.89
69464;DHT22;56665;41.106;16.688;2023-01-28T18:23:39;8.51;77.29
69464;DHT22;56665;41.106;16.688;2023-01-28T18:26:43;8.51;77.43
69464;DHT22;56665;41.106;16.688;2023-01-28T18:29:49;8.47;77.72
69464;DHT22;56665;41.106;16.688;2023-01-28T18:32:54;8.41;77.56
69464;DHT22;56665;41.106;16.688;2023-01-28T18:35:58;8.37;77.38
69464;DHT22;56665;41.106;16.688;2023-01-28T18:39:02;8.37;77.53
69464;DHT22;56665;41.106;16.688;2023-01-28T18:42:06;8.30;77.77
69464;DHT22;56665;41.106;16.688;2023-01-28T18:45:10;8.29;77.52
69464;DHT22;56665;41.106;16.688;2023-01-28T18:48:14;8.29;77.74
69464;DHT22;56665;41.106;16.688;2023-01-28T18:51:18;8.27;77.67
69464;DHT22;56665;41.106;16.688;2023-01-28T18:54:22;8.22;77.97
69464;DHT22;56665;41.106;16.688;2023-01-28T18:57:27;8.17;78.18
69464;DHT22;56665;41.106;16.688;2023-01-28T19:00:31;8.16;78.19
69464;DHT22;56665;41.106;16.688;2023-01-28T19:03:36;8.09;78.46
69464;DHT22;56665;41.106;16.688;2023-01-28T19:06:40;7.95;78.77
69464;DHT22;56665;41.106;16.688;2023-01-28T19:09:44;7.84;79.15
69464;DHT22;56665;41.106;16.688;2023-01-28T19:12:48;7.71;79.62
69464;DHT22;56665;41.106;16.688;2023-01-28T19:15:52;7.59;79.86
69464;DHT22;56665;41.106;16.688;2023-01-28T19:18:57;7.51;80.36
69464;DHT22;56665;41.106;16.688;2023-01-28T19:22:02;7.44;80.63
69464;DHT22;56665;41.106;16.688;2023-01-28T19:25:08;7.36;80.50
69464;DHT22;56665;41.106;16.688;2023-01-28T19:28:12;7.36;80.82
69464;DHT22;56665;41.106;16.688;2023-01-28T19:31:16;7.33;80.92
69464;DHT22;56665;41.106;16.688;2023-01-28T19:34:21;7.30;80.98
69464;DHT22;56665;41.106;16.688;2023-01-28T19:37:25;7.38;81.23
69464;DHT22;56665;41.106;16.688;2023-01-28T19:40:30;7.47;81.26
69464;DHT22;56665;41.106;16.688;2023-01-28T19:43:34;7.51;81.04
69464;DHT22;56665;41.106;16.688;2023-01-28T19:46:38;7.50;80.81
69464;DHT22;56665;41.106;16.688;2023-01-28T19:49:43;7.46;81.46
69464;DHT22;56665;41.106;16.688;2023-01-28T19:52:48;7.46;81.72
69464;DHT22;56665;41.106;16.688;2023-01-28T19:55:52;7.48;81.82
69464;DHT22;56665;41.106;16.688;2023-01-28T19:58:57;7.47;81.61
69464;DHT22;56665;41.106;16.688;2023-01-28T20:02:01;7.41;81.94
69464;DHT22;56665;41.106;16.688;2023-01-28T20:05:05;7.43;82.14
69464;DHT22;56665;41.106;16.688;2023-01-28T20:08:12;7.40;82.28
69464;DHT22;56665;41.106;16.688;2023-01-28T20:11:16;7.41;82.58
69464;DHT22;56665;41.106;16.688;2023-01-28T20:14:19;7.44;83.88
69464;DHT22;56665;41.106;16.688;2023-01-28T20:17:24;7.51;84.37
69464;DHT22;56665;41.106;16.688;2023-01-28T20:20:30;7.54;83.69
69464;DHT22;56665;41.106;16.688;2023-01-28T20:23:34;7.59;83.95
69464;DHT22;56665;41.106;16.688;2023-01-28T20:26:40;7.62;83.23
69464;DHT22;56665;41.106;16.688;2023-01-28T20:29:45;7.65;83.16
69464;DHT22;56665;41.106;16.688;2023-01-28T20:32:49;7.62;82.77
69464;DHT22;56665;41.106;16.688;2023-01-28T20:36:00;7.57;82.57
69464;DHT22;56665;41.106;16.688;2023-01-28T20:39:04;7.58;83.61
69464;DHT22;56665;41.106;16.688;2023-01-28T20:42:08;7.61;83.51
69464;DHT22;56665;41.106;16.688;2023-01-28T20:45:13;7.59;83.40
69464;DHT22;56665;41.106;16.688;2023-01-28T20:48:17;7.61;83.25
69464;DHT22;56665;41.106;16.688;2023-01-28T20:51:24;7.64;83.90
69464;DHT22;56665;41.106;16.688;2023-01-28T20:54:28;7.69;84.39
69464;DHT22;56665;41.106;16.688;2023-01-28T20:57:31;7.74;83.71
69464;DHT22;56665;41.106;16.688;2023-01-28T21:00:35;7.75;82.99
69464;DHT22;56665;41.106;16.688;2023-01-28T21:03:40;7.74;82.43
69464;DHT22;56665;41.106;16.688;2023-01-28T21:06:46;7.77;82.96
69464;DHT22;56665;41.106;16.688;2023-01-28T21:09:51;7.77;82.63
69464;DHT22;56665;41.106;16.688;2023-01-28T21:12:55;7.74;82.48
69464;DHT22;56665;41.106;16.688;2023-01-28T21:15:59;7.61;82.56
69464;DHT22;56665;41.106;16.688;2023-01-28T21:19:03;7.62;83.31
69464;DHT22;56665;41.106;16.688;2023-01-28T21:22:06;7.68;84.18
69464;DHT22;56665;41.106;16.688;2023-01-28T21:25:11;7.67;83.32
69464;DHT22;56665;41.106;16.688;2023-01-28T21:28:16;7.58;82.80
69464;DHT22;56665;41.106;16.688;2023-01-28T21:31:23;7.58;82.88
69464;DHT22;56665;41.106;16.688;2023-01-28T21:34:27;7.58;82.56
69464;DHT22;56665;41.106;16.688;2023-01-28T21:37:32;7.55;82.46
69464;DHT22;56665;41.106;16.688;2023-01-28T21:40:37;7.51;82.46
69464;DHT22;56665;41.106;16.688;2023-01-28T21:43:41;7.47;82.74
69464;DHT22;56665;41.106;16.688;2023-01-28T21:46:45;7.41;83.33
69464;DHT22;56665;41.106;16.688;2023-01-28T21:49:49;7.43;83.48
69464;DHT22;56665;41.106;16.688;2023-01-28T21:52:52;7.41;83.35